Bengough, Canada
Current Conditions -  °F | °C
As of 4:00 PM on Tuesday 25 Nov 2014 (Local Time) from CYQR Reporting Station
Broken Clouds Broken Clouds  
Wind Chill:   Ceiling: 7200
Heat Index: 18°   Visibility: 15mi
Dew Point: 12°   Wind: 12mph
Humidity: 79%   Direction: 20°NNE
Pressure: 29.99"   Gusts: NA
Location:  49.4°N, 105.12°W
Report Text: CYQR 252200Z 02010KT 15SM FEW015 BKN072 M08/M11 A2999 RMK SC1AC6 SLP196
Loading
Personal Weather Stations






























Interactive Weather Map New forecast layout! Learn more

10-Day Weather Forecast

Advertisements
Track Severe Weather on mobile